createdAt,value
2022-08-30T00:00:45.810Z,10.93
2022-08-30T00:04:49.929Z,8.45
2022-08-30T00:08:54.299Z,8.65
2022-08-30T00:12:58.677Z,11.13
2022-08-30T00:17:03.573Z,12.32
2022-08-30T00:21:08.303Z,10.95
2022-08-30T00:25:12.531Z,7.20
2022-08-30T00:29:16.191Z,11.30
2022-08-30T00:33:21.204Z,11.48
2022-08-30T00:37:24.742Z,25.42
2022-08-30T00:41:27.887Z,13.35
2022-08-30T00:45:34.732Z,10.70
2022-08-30T00:49:43.472Z,8.73
2022-08-30T00:53:50.129Z,11.05
2022-08-30T00:57:57.813Z,14.80
2022-08-30T01:02:02.467Z,10.10
2022-08-30T01:06:08.667Z,16.73
2022-08-30T01:10:15.169Z,10.57
2022-08-30T01:14:19.348Z,14.30
2022-08-30T01:18:24.588Z,15.38
2022-08-30T01:22:37.992Z,15.38
2022-08-30T01:26:42.804Z,10.27
2022-08-30T01:30:46.607Z,9.35
2022-08-30T01:34:50.154Z,9.00
2022-08-30T01:38:55.917Z,12.20
2022-08-30T01:43:00.913Z,13.60
2022-08-30T01:47:04.521Z,16.23
2022-08-30T01:51:07.897Z,8.98
2022-08-30T01:55:12.590Z,12.60
2022-08-30T01:59:17.534Z,12.98
2022-08-30T02:03:21.403Z,14.10
2022-08-30T02:07:26.079Z,9.18
2022-08-30T02:11:29.613Z,9.82
2022-08-30T02:15:41.524Z,9.27
2022-08-30T02:19:45.708Z,8.73
2022-08-30T02:23:49.267Z,14.50
2022-08-30T02:27:52.787Z,8.70
2022-08-30T02:31:57.895Z,13.30
2022-08-30T02:36:01.391Z,7.53
2022-08-30T02:40:06.904Z,11.65
2022-08-30T02:44:11.360Z,8.38
2022-08-30T02:48:16.704Z,10.98
2022-08-30T02:52:20.476Z,7.97
2022-08-30T02:56:31.665Z,6.70
2022-08-30T03:00:35.632Z,10.57
2022-08-30T03:04:40.904Z,7.53
2022-08-30T03:08:44.095Z,10.27
2022-08-30T03:12:48.462Z,6.68
2022-08-30T03:16:52.148Z,8.65
2022-08-30T03:20:57.207Z,8.40
2022-08-30T03:25:01.847Z,7.68
2022-08-30T03:29:05.632Z,13.07
2022-08-30T03:33:09.210Z,7.03
2022-08-30T03:37:16.124Z,6.05
2022-08-30T03:41:19.631Z,10.13
2022-08-30T03:45:23.285Z,9.75
2022-08-30T03:49:26.759Z,8.38
2022-08-30T03:53:31.790Z,12.38
2022-08-30T03:57:36.684Z,8.98
2022-08-30T04:01:40.545Z,7.93
2022-08-30T04:05:45.025Z,12.85
2022-08-30T04:09:50.095Z,11.73
2022-08-30T04:13:53.620Z,8.30
2022-08-30T04:17:56.888Z,8.23
2022-08-30T04:22:00.541Z,16.35
2022-08-30T04:26:05.636Z,11.27
2022-08-30T04:30:09.657Z,10.02
2022-08-30T04:34:12.943Z,9.93
2022-08-30T04:38:17.243Z,9.27
2022-08-30T04:42:21.658Z,12.10
2022-08-30T04:46:25.584Z,6.63
2022-08-30T04:50:29.249Z,9.35
2022-08-30T04:54:33.526Z,7.50
2022-08-30T04:58:38.242Z,10.63
2022-08-30T05:02:43.161Z,9.93
2022-08-30T05:06:46.825Z,9.75
2022-08-30T05:10:52.911Z,13.43
2022-08-30T05:14:58.421Z,12.02
2022-08-30T05:19:01.717Z,7.90
2022-08-30T05:23:06.017Z,7.88
2022-08-30T05:27:09.499Z,10.45
2022-08-30T05:31:21.769Z,8.85
2022-08-30T05:35:25.976Z,10.95
2022-08-30T05:39:51.260Z,14.93
2022-08-30T05:43:54.418Z,14.77
2022-08-30T05:47:59.503Z,13.30
2022-08-30T05:52:02.653Z,33.92
2022-08-30T05:56:09.228Z,23.92
2022-08-30T06:00:15.766Z,21.33
2022-08-30T06:04:20.909Z,23.52
2022-08-30T06:08:24.115Z,8.43
2022-08-30T06:12:28.579Z,10.73
2022-08-30T06:16:33.035Z,8.35
2022-08-30T06:20:41.257Z,12.25
2022-08-30T06:25:00.131Z,11.38
2022-08-30T06:29:03.318Z,9.57
2022-08-30T06:33:07.040Z,12.13
2022-08-30T06:37:11.581Z,12.70
2022-08-30T06:41:19.156Z,15.88
2022-08-30T06:45:22.455Z,10.13
2022-08-30T06:49:28.223Z,10.82
2022-08-30T06:53:33.699Z,11.90
2022-08-30T06:57:37.086Z,15.57
2022-08-30T07:01:44.396Z,11.98
2022-08-30T07:05:50.227Z,10.48
2022-08-30T07:09:55.353Z,14.52
2022-08-30T07:13:58.967Z,9.63
2022-08-30T07:18:19.877Z,9.80
2022-08-30T07:22:23.012Z,8.60
2022-08-30T07:26:30.601Z,15.38
2022-08-30T07:30:34.799Z,9.80
2022-08-30T07:34:39.641Z,10.65
2022-08-30T07:38:42.902Z,10.63
2022-08-30T07:42:48.090Z,8.02
2022-08-30T07:46:51.407Z,10.35
2022-08-30T07:50:58.960Z,9.63
2022-08-30T07:55:04.908Z,8.35
2022-08-30T07:59:09.915Z,13.38
2022-08-30T08:03:13.063Z,9.38
2022-08-30T08:07:17.649Z,14.90
2022-08-30T08:11:25.062Z,9.98
2022-08-30T08:15:30.759Z,10.23
2022-08-30T08:19:34.527Z,8.75
2022-08-30T08:23:37.626Z,11.00
2022-08-30T08:27:41.361Z,6.45
2022-08-30T08:31:47.808Z,7.57
2022-08-30T08:35:51.085Z,8.82
2022-08-30T08:39:54.646Z,7.93
2022-08-30T08:43:58.204Z,8.95
2022-08-30T08:48:06.870Z,8.95
2022-08-30T08:52:35.784Z,8.45
2022-08-30T08:56:39.687Z,7.35
2022-08-30T09:00:43.412Z,8.30
2022-08-30T09:04:51.813Z,5.15
2022-08-30T09:08:55.454Z,5.65
2022-08-30T09:13:00.151Z,6.43
2022-08-30T09:17:07.989Z,8.20
2022-08-30T09:21:14.210Z,6.45
2022-08-30T09:25:24.504Z,10.77
2022-08-30T09:29:27.676Z,6.53
2022-08-30T09:33:31.993Z,7.10
2022-08-30T09:37:41.062Z,11.73
2022-08-30T09:41:47.223Z,9.10
2022-08-30T09:46:09.312Z,4.75
2022-08-30T09:50:16.201Z,4.75
2022-08-30T09:54:31.006Z,7.53
2022-08-30T09:58:47.436Z,4.00
2022-08-30T10:03:05.404Z,4.85
2022-08-30T10:07:15.419Z,7.15
2022-08-30T10:11:26.353Z,5.22
2022-08-30T10:15:34.592Z,3.95
2022-08-30T10:19:54.906Z,11.23
2022-08-30T10:24:04.665Z,4.88
2022-08-30T10:28:16.501Z,7.43
2022-08-30T10:32:30.262Z,4.45
2022-08-30T10:36:42.028Z,5.10
2022-08-30T10:41:09.137Z,7.35
2022-08-30T10:45:17.709Z,8.10
2022-08-30T10:49:24.385Z,4.15
2022-08-30T10:53:33.938Z,1.95
2022-08-30T10:57:37.240Z,5.20
2022-08-30T11:02:07.984Z,6.55
2022-08-30T11:06:20.129Z,4.38
2022-08-30T11:14:31.995Z,5.55
2022-08-30T11:18:51.036Z,4.35
2022-08-30T11:23:32.541Z,7.13
2022-08-30T11:27:48.705Z,2.53
2022-08-30T11:31:52.605Z,4.63
2022-08-30T11:35:58.259Z,5.20
2022-08-30T11:40:04.013Z,2.90
2022-08-30T11:44:16.651Z,4.40
2022-08-30T11:48:54.048Z,4.03
2022-08-30T11:53:08.137Z,9.10
2022-08-30T11:57:24.146Z,5.00
2022-08-30T12:01:54.982Z,4.13
2022-08-30T12:06:03.461Z,3.25
2022-08-30T12:10:22.903Z,2.75
2022-08-30T12:14:49.206Z,2.72
2022-08-30T12:18:56.072Z,6.00
2022-08-30T12:23:14.835Z,3.10
2022-08-30T12:27:27.304Z,3.22
2022-08-30T12:31:42.249Z,4.22
2022-08-30T12:35:46.231Z,4.90
2022-08-30T12:39:53.801Z,3.70
2022-08-30T12:43:59.219Z,5.18
2022-08-30T12:48:06.405Z,4.53
2022-08-30T12:52:23.943Z,2.42
2022-08-30T12:57:19.083Z,3.63
2022-08-30T13:01:32.482Z,3.33
2022-08-30T13:05:50.491Z,3.63
2022-08-30T13:10:07.253Z,2.63
2022-08-30T13:14:33.057Z,2.13
2022-08-30T13:18:39.018Z,2.47
2022-08-30T13:22:44.942Z,6.28
2022-08-30T13:26:49.077Z,2.03
2022-08-30T13:30:52.216Z,5.68
2022-08-30T13:34:57.456Z,3.13
2022-08-30T13:39:02.382Z,2.42
2022-08-30T13:43:06.037Z,3.67
2022-08-30T13:51:36.887Z,2.92
2022-08-30T13:55:43.155Z,1.13
2022-08-30T13:59:50.904Z,2.50
2022-08-30T14:13:02.616Z,2.47
2022-08-30T14:17:12.999Z,2.30
2022-08-30T14:21:18.253Z,7.50
2022-08-30T14:25:31.300Z,4.13
2022-08-30T14:29:35.864Z,3.75
2022-08-30T14:33:40.346Z,2.58
2022-08-30T14:37:45.709Z,2.55
2022-08-30T14:41:58.370Z,2.42
2022-08-30T14:46:11.054Z,2.72
2022-08-30T14:50:15.345Z,2.17
2022-08-30T14:54:20.830Z,3.38
2022-08-30T14:58:29.819Z,2.05
2022-08-30T15:02:35.024Z,3.42
2022-08-30T15:06:40.273Z,2.08
2022-08-30T15:10:46.002Z,1.95
2022-08-30T15:14:51.513Z,3.15
2022-08-30T15:18:56.472Z,1.15
2022-08-30T15:23:02.784Z,4.50
2022-08-30T15:27:10.311Z,2.35
2022-08-30T15:31:16.562Z,1.13
2022-08-30T15:35:20.294Z,2.35
2022-08-30T15:39:26.820Z,1.88
2022-08-30T15:43:30.920Z,3.20
2022-08-30T15:47:38.575Z,2.50
2022-08-30T15:51:45.914Z,1.42
2022-08-30T15:55:49.933Z,1.27
2022-08-30T15:59:56.316Z,2.97
2022-08-30T16:04:03.410Z,6.50
2022-08-30T16:08:10.668Z,5.38
2022-08-30T16:12:22.463Z,5.35
2022-08-30T16:16:28.085Z,1.30
2022-08-30T16:20:33.930Z,2.03
2022-08-30T16:24:39.133Z,2.63
2022-08-30T16:28:44.924Z,2.10
2022-08-30T16:32:49.696Z,2.75
2022-08-30T16:36:56.599Z,1.92
2022-08-30T16:41:00.885Z,1.80
2022-08-30T16:45:10.756Z,1.73
2022-08-30T16:49:16.145Z,2.20
2022-08-30T16:53:23.378Z,3.08
2022-08-30T16:57:32.166Z,4.25
2022-08-30T17:01:40.810Z,3.47
2022-08-30T17:05:46.621Z,4.60
2022-08-30T17:09:51.472Z,7.22
2022-08-30T17:13:57.539Z,3.17
2022-08-30T17:18:01.544Z,4.28
2022-08-30T17:26:40.827Z,6.80
2022-08-30T17:30:45.217Z,2.97
2022-08-30T17:34:49.073Z,2.20
2022-08-30T17:38:53.764Z,2.60
2022-08-30T17:43:03.780Z,2.42
2022-08-30T17:47:08.714Z,3.70
2022-08-30T17:51:13.039Z,3.97
2022-08-30T17:55:17.678Z,4.70
2022-08-30T17:59:25.719Z,3.90
2022-08-30T18:03:30.027Z,2.33
2022-08-30T18:07:37.348Z,3.42
2022-08-30T18:11:42.862Z,6.28
2022-08-30T18:15:50.702Z,3.75
2022-08-30T18:19:54.218Z,3.25
2022-08-30T18:24:01.005Z,6.55
2022-08-30T18:28:08.675Z,7.18
2022-08-30T18:32:18.964Z,3.83
2022-08-30T18:36:25.575Z,5.00
2022-08-30T18:40:29.842Z,2.92
2022-08-30T18:44:37.784Z,2.53
2022-08-30T18:48:44.239Z,3.90
2022-08-30T18:52:49.177Z,7.32
2022-08-30T18:56:54.500Z,9.80
2022-08-30T19:00:58.924Z,2.85
2022-08-30T19:05:11.598Z,6.68
2022-08-30T19:09:18.686Z,4.53
2022-08-30T19:13:23.952Z,5.55
2022-08-30T19:17:28.640Z,4.72
2022-08-30T19:21:36.281Z,4.53
2022-08-30T19:25:56.823Z,5.70
2022-08-30T19:30:03.020Z,4.38
2022-08-30T19:34:08.303Z,4.85
2022-08-30T19:38:14.186Z,4.78
2022-08-30T19:42:19.806Z,8.65
2022-08-30T19:46:23.135Z,3.88
2022-08-30T19:50:27.085Z,4.82
2022-08-30T19:54:32.224Z,4.70
2022-08-30T19:58:38.402Z,3.45
2022-08-30T20:02:43.660Z,6.47
2022-08-30T20:06:49.821Z,4.75
2022-08-30T20:11:00.032Z,7.30
2022-08-30T20:15:09.986Z,7.03
2022-08-30T20:19:18.564Z,5.60
2022-08-30T20:23:26.296Z,4.22
2022-08-30T20:27:31.730Z,5.38
2022-08-30T20:31:36.907Z,12.85
2022-08-30T20:35:48.358Z,6.95
2022-08-30T20:43:58.514Z,4.57
2022-08-30T20:48:02.212Z,7.28
2022-08-30T20:52:07.012Z,5.13
2022-08-30T20:56:15.081Z,5.53
2022-08-30T21:00:21.129Z,6.90
2022-08-30T21:04:25.687Z,4.35
2022-08-30T21:08:30.362Z,4.93
2022-08-30T21:12:34.128Z,4.60
2022-08-30T21:16:40.099Z,4.10
2022-08-30T21:20:43.779Z,5.90
2022-08-30T21:24:47.355Z,5.43
2022-08-30T21:28:52.002Z,5.63
2022-08-30T21:32:59.950Z,4.32
2022-08-30T21:37:04.129Z,8.18
2022-08-30T21:41:07.314Z,8.10
2022-08-30T21:45:13.176Z,7.57
2022-08-30T21:49:20.636Z,9.10
2022-08-30T21:53:24.067Z,5.72
2022-08-30T21:57:28.144Z,4.13
2022-08-30T22:01:36.408Z,5.90
2022-08-30T22:05:42.713Z,6.28
2022-08-30T22:09:46.298Z,11.27
2022-08-30T22:13:51.649Z,15.75
2022-08-30T22:17:56.477Z,5.55
2022-08-30T22:22:01.775Z,9.82
2022-08-30T22:26:07.102Z,12.50
2022-08-30T22:30:11.302Z,5.68
2022-08-30T22:34:14.532Z,7.38
2022-08-30T22:38:19.779Z,7.55
2022-08-30T22:42:23.587Z,9.25
2022-08-30T22:46:34.282Z,6.10
2022-08-30T22:50:38.655Z,13.70
2022-08-30T22:54:43.566Z,7.93
2022-08-30T22:58:48.149Z,9.73
2022-08-30T23:02:54.773Z,6.80
2022-08-30T23:06:57.900Z,10.63
2022-08-30T23:11:03.126Z,6.95
2022-08-30T23:15:08.597Z,13.02
2022-08-30T23:19:11.758Z,10.45
2022-08-30T23:23:32.867Z,11.10
2022-08-30T23:27:55.159Z,7.82
2022-08-30T23:32:16.255Z,12.33
2022-08-30T23:36:37.530Z,8.23
2022-08-30T23:40:58.960Z,7.93
2022-08-30T23:45:20.912Z,12.10
2022-08-30T23:49:42.058Z,7.63
2022-08-30T23:54:02.995Z,8.48
2022-08-30T23:58:24.272Z,6.25
